Flight Track Log - Related Links

Times and Time Zones

All times are in EDT time to prevent confusion due to time zone crossing. See the AAY874 flight status page for this flight to view local times or setup timezone preferences in your user account.

Time Position Orientation Groundspeed Altitude Reporting Facility
EDT Latitude Longitude Course Direction KTS MPH feet Rate Location/Type
Fri 02:31:28 PM 27.9333 -82.7000 North 174 200 700  Level Tampa TRACON
Fri 02:32:10 PM 27.9667 -82.6833 24° Northeast 185 213 1,900 1,611 Climbing Tampa TRACON
Fri 02:33:16 PM 28.0333 -82.6667 12° North 268 308 3,600 2,250 Climbing Tampa TRACON
Fri 02:35:00 PM 28.7103 -82.6366 North  Level FlightAware
Fri 02:35:22 PM 28.1769 -82.7067 346° North 265 305 9,100  Level Jacksonville Center
Fri 02:36:00 PM 28.8263 -82.6333 North  Level FlightAware
Fri 02:36:22 PM 28.2583 -82.7158 354° North 281 323 10,800  Level Jacksonville Center
Fri 02:37:22 PM 28.3522 -82.7275 354° North 312 359 12,800 2,050 Climbing Jacksonville Center
Fri 02:38:22 PM 28.4525 -82.7367 355° North 340 391 14,900 1,950 Climbing Jacksonville Center
Fri 02:39:22 PM 28.5547 -82.7483 354° North 358 412 16,700 1,650 Climbing Jacksonville Center
Fri 02:40:22 PM 28.6653 -82.7578 356° North 371 427 18,200 1,700 Climbing Jacksonville Center
Fri 02:41:22 PM 28.7822 -82.7647 357° North 382 440 20,100 1,800 Climbing Jacksonville Center
Fri 02:42:22 PM 28.8992 -82.7764 355° North 397 457 21,800 1,600 Climbing Jacksonville Center
Fri 02:43:22 PM 29.0117 -82.7714 North 403 464 23,300 1,312 Climbing Jacksonville Center
Fri 02:49:09 PM 29.7262 -82.6669 North 448 516 30,700 1,240 Climbing FlightAware
Fri 02:49:54 PM 29.8169 -82.6538 North 450 518 31,400 1,011 Climbing FlightAware
Fri 02:50:44 PM 29.8965 -82.6423 North 447 514 32,300 970 Climbing FlightAware
Fri 02:51:33 PM 30.0238 -82.6239 North 450 518 33,000 977 Climbing FlightAware
Fri 02:52:53 PM 30.1878 -82.5997 North 444 511 34,400 1,041 Climbing FlightAware
Fri 02:53:34 PM 30.2703 -82.5875 North 441 507 35,100 839 Climbing FlightAware
Fri 02:54:26 PM 30.3638 -82.5738 North 440 506 35,700 605 Climbing FlightAware
Fri 02:55:33 PM 30.5087 -82.5313 22° Northeast 439 505 36,300 517 Climbing FlightAware
Fri 02:56:22 PM 30.5769 -82.4969 22° Northeast 438 504 36,700 385 Climbing Jacksonville Center
Fri 02:57:22 PM 30.6789 -82.4144 35° Northeast 425 489 37,000 44 Climbing Jacksonville Center
Fri 03:03:14 PM 31.2792 -81.9220 35° Northeast 441 507 37,000 14 Level FlightAware
Fri 03:04:40 PM 31.4225 -81.8037 35° Northeast 442 509 37,100  Climbing FlightAware
Fri 03:06:18 PM 31.5877 -81.6669 35° Northeast 445 512 37,000 -19 Descending FlightAware
Fri 03:09:49 PM 31.9426 -81.3709 36° Northeast 449 517 37,000  Level FlightAware
Fri 03:11:28 PM 32.1105 -81.2280 40° Northeast 449 517 37,000  Level FlightAware
Fri 03:12:33 PM 32.2027 -81.1138 53° Northeast 450 518 37,000  Level FlightAware
Fri 03:13:21 PM 32.2635 -81.0202 53° Northeast 450 518 37,000  Level FlightAware
Fri 03:13:57 PM 32.3026 -80.9601 53° Northeast 449 517 37,000  Level FlightAware
Fri 03:14:39 PM 32.3535 -80.8818 53° Northeast 450 518 37,000  Level FlightAware
Fri 03:15:18 PM 32.4120 -80.7916 53° Northeast 450 518 37,000  Level FlightAware
Fri 03:15:59 PM 32.4640 -80.7111 53° Northeast 450 518 37,000  Level FlightAware
Fri 03:16:42 PM 32.5186 -80.6266 53° Northeast 449 517 37,000  Level FlightAware
Fri 03:17:18 PM 32.5643 -80.5555 53° Northeast 449 517 37,000  Level FlightAware
Fri 03:18:15 PM 32.6204 -80.4681 53° Northeast 446 513 37,000  Level FlightAware
Fri 03:23:08 PM 33.0472 -79.9272 32° Northeast 449 517 37,000  Level FlightAware
Fri 03:24:22 PM 33.1611 -79.8431 32° Northeast 442 509 37,000  Level Jacksonville Center
Fri 03:25:22 PM 33.2675 -79.7650 32° Northeast 437 503 37,000  Level Jacksonville Center
Fri 03:26:22 PM 33.3742 -79.6889 31° Northeast 437 503 37,000  Level Jacksonville Center
Fri 03:27:22 PM 33.4786 -79.6131 31° Northeast 442 509 37,000  Level Jacksonville Center
Fri 03:33:20 PM 34.1242 -79.1317 32° Northeast 447 514 37,000  Level FlightAware
Fri 03:34:01 PM 34.1957 -79.0778 32° Northeast 445 512 37,000  Level FlightAware
Fri 03:34:42 PM 34.2443 -79.0413 32° Northeast 443 510 37,000  Level FlightAware
Fri 03:35:44 PM 34.3725 -78.9447 32° Northeast 442 509 37,000  Level FlightAware
Fri 03:36:15 PM 34.4294 -78.9017 32° Northeast 441 507 37,000  Level FlightAware
Fri 03:37:02 PM 34.5075 -78.8428 32° Northeast 442 509 37,000  Level FlightAware
Fri 03:37:39 PM 34.5675 -78.7973 32° Northeast 442 509 37,000  Level FlightAware
Fri 03:38:36 PM 34.6743 -78.7158 32° Northeast 441 507 37,000  Level FlightAware
Fri 03:39:41 PM 34.7870 -78.6298 32° Northeast 445 512 37,000  Level FlightAware
Fri 03:42:42 PM 35.1030 -78.3871 32° Northeast 447 514 37,000  Level FlightAware
Fri 03:45:56 PM 35.4506 -78.1176 32° Northeast 459 528 37,000  Level FlightAware
Fri 03:48:00 PM 35.4679 -78.1041 33° Northeast 452 520 37,000  Level FlightAware
Fri 03:49:00 PM 35.7503 -77.8853 33° Northeast 450 518 37,000  Level Washington Center
Fri 03:50:01 PM 35.8583 -77.8011 32° Northeast 450 518 37,000  Level Washington Center
Fri 03:55:23 PM 36.4144 -77.2959 37° Northeast 446 513 37,000  Level FlightAware (KWWD)
Fri 03:55:55 PM 36.4666 -77.2467 37° Northeast 447 514 37,000  Level FlightAware (KWWD)
Fri 03:56:25 PM 36.5154 -77.2009 37° Northeast 445 512 37,000 94 Level FlightAware (KWWD)
Fri 03:56:59 PM 36.5803 -77.1396 37° Northeast 443 510 37,100  Climbing FlightAware
Fri 03:57:30 PM 36.6231 -77.0991 37° Northeast 440 506 37,000 -97 Descending FlightAware
Fri 03:58:01 PM 36.6809 -77.0447 37° Northeast 440 506 37,000  Level FlightAware
Fri 03:58:46 PM 36.7531 -76.9769 36° Northeast 439 505 37,000  Level FlightAware
Fri 03:59:17 PM 36.7804 -76.9526 35° Northeast 438 504 37,000  Level FlightAware
Fri 03:59:56 PM 36.8610 -76.8810 36° Northeast 439 505 37,000  Level FlightAware (KWWD)
Fri 04:00:31 PM 36.9239 -76.8243 36° Northeast 436 502 37,000  Level FlightAware
Fri 04:01:16 PM 36.9993 -76.7562 36° Northeast 434 499 37,000  Level FlightAware
Fri 04:02:02 PM 37.0668 -76.6950 35° Northeast 433 498 37,000  Level FlightAware
Fri 04:02:39 PM 37.1260 -76.6415 35° Northeast 433 498 37,000  Level FlightAware
Fri 04:03:22 PM 37.1968 -76.5772 35° Northeast 436 502 37,000  Level FlightAware
Fri 04:03:57 PM 37.2613 -76.5184 36° Northeast 437 503 37,000  Level FlightAware
Fri 04:04:43 PM 37.3293 -76.4564 36° Northeast 439 505 37,000  Level FlightAware
Fri 04:05:15 PM 37.3904 -76.4005 36° Northeast 439 505 37,000  Level FlightAware
Fri 04:06:01 PM 37.4582 -76.3383 36° Northeast 440 506 37,000 73 Level FlightAware
Fri 04:06:37 PM 37.5173 -76.2839 36° Northeast 440 506 37,100  Climbing FlightAware
Fri 04:07:11 PM 37.5733 -76.2323 36° Northeast 441 507 37,000  Descending FlightAware (KWWD)
Fri 04:07:48 PM 37.6339 -76.1763 36° Northeast 441 507 37,100  Climbing FlightAware (KWWD)
Fri 04:08:22 PM 37.6894 -76.1250 36° Northeast 441 507 37,000 -83 Descending FlightAware
Fri 04:09:00 PM 37.7519 -76.0671 36° Northeast 442 509 37,000  Level FlightAware
Fri 04:10:02 PM 37.8519 -75.9743 36° Northeast 441 507 37,000  Level FlightAware (EGAA / BFS)
Fri 04:10:43 PM 37.9213 -75.9096 36° Northeast 442 509 37,000  Level FlightAware (EGAA / BFS)
Fri 04:11:22 PM 37.9862 -75.8488 37° Northeast 440 506 37,000  Level FlightAware (EGAA / BFS)
Fri 04:11:52 PM 38.0282 -75.8095 37° Northeast 438 504 37,000  Level FlightAware (EGAA / BFS)
Fri 04:12:03 PM 38.0526 -75.7866 36° Northeast 438 504 37,000  Level FlightAware
Fri 04:12:43 PM 38.1170 -75.7260 37° Northeast 436 502 37,000  Level FlightAware (EGAA / BFS)
Fri 04:13:22 PM 38.1805 -75.6664 37° Northeast 435 501 37,000  Level FlightAware (EGAA / BFS)
Fri 04:14:12 PM 38.2575 -75.5938 37° Northeast 436 502 37,000  Level FlightAware (EGAA / BFS)
Fri 04:14:43 PM 38.2995 -75.5554 32° Northeast 432 497 37,000  Level FlightAware (EGAA / BFS)
Fri 04:15:13 PM 38.3472 -75.5196 26° Northeast 428 493 37,000  Level FlightAware (EGAA / BFS)
Fri 04:15:48 PM 38.4287 -75.4762 18° North 422 486 37,000  Level FlightAware (EGAA / BFS)
Fri 04:16:22 PM 38.4922 -75.4501 18° North 423 487 37,000 71 Level FlightAware (EGAA / BFS)
Fri 04:17:12 PM 38.5822 -75.4125 18° North 422 486 37,100  Climbing FlightAware (EGAA / BFS)
Fri 04:17:50 PM 38.6474 -75.3854 18° North 420 483 37,000 -75 Descending FlightAware (KPHL)
Fri 04:18:32 PM 38.7333 -75.3494 20° North 420 483 37,000  Level FlightAware (EGAA / BFS)
Fri 04:18:50 PM 38.7482 -75.3411 31° Northeast 430 495 37,000 118 Level FlightAware (KPHL)
Fri 04:19:23 PM 38.8146 -75.2822 36° Northeast 435 501 37,100  Climbing FlightAware (EGAA / BFS)
Fri 04:20:12 PM 38.8886 -75.2135 36° Northeast 429 494 37,000 -75 Descending FlightAware (EGAA / BFS)
Fri 04:20:43 PM 38.9450 -75.1612 36° Northeast 429 494 37,000  Level FlightAware (EGAA / BFS)
Fri 04:21:19 PM 39.0023 -75.1078 36° Northeast 429 494 37,000  Level FlightAware (KPHL)
Fri 04:21:51 PM 39.0574 -75.0564 36° Northeast 429 494 37,000  Level FlightAware (KPHL)
Fri 04:22:32 PM 39.1226 -74.9954 36° Northeast 431 496 37,000  Level FlightAware (EGAA / BFS)
Fri 04:23:51 PM 39.2511 -74.8747 36° Northeast 431 496 37,000  Level FlightAware (KPHL)
Fri 04:24:23 PM 39.2708 -74.8562 36° Northeast 432 497 37,000  Level FlightAware (KPHL)
Fri 04:25:08 PM 39.3740 -74.7589 36° Northeast 432 497 37,000 67 Level FlightAware (KPHL)
Fri 04:25:53 PM 39.4471 -74.6898 36° Northeast 431 496 37,100  Climbing FlightAware (KPHL)
Fri 04:26:37 PM 39.5074 -74.6326 36° Northeast 431 496 37,000 -59 Descending FlightAware (KPHL)
Fri 04:27:35 PM 39.6071 -74.5379 36° Northeast 430 495 37,000  Level FlightAware (KPHL)
Fri 04:28:38 PM 39.7121 -74.4376 36° Northeast 430 495 37,000  Level FlightAware (KPHL)
Fri 04:29:23 PM 39.7838 -74.3690 37° Northeast 429 494 37,000  Level FlightAware (KPHL)
Fri 04:30:07 PM 39.8539 -74.3016 37° Northeast 427 491 37,000  Level FlightAware (KPHL)
Fri 04:30:54 PM 39.9300 -74.2284 37° Northeast 420 483 37,000  Level FlightAware (KWWD)
Fri 04:31:26 PM 39.9773 -74.1827 37° Northeast 427 491 37,000  Level FlightAware (KSNC)
Fri 04:31:59 PM 40.0245 -74.1371 37° Northeast 426 490 37,000  Level FlightAware (KPHL)
Fri 04:32:39 PM 40.0958 -74.0680 37° Northeast 427 491 37,000  Level FlightAware (KSNC)
Fri 04:33:17 PM 40.1523 -74.0132 37° Northeast 428 493 37,000  Level FlightAware (KSNC)
Fri 04:34:25 PM 40.2649 -73.9033 37° Northeast 431 496 37,000  Level FlightAware (KSNC)
Fri 04:34:56 PM 40.3147 -73.8546 37° Northeast 432 497 37,000 83 Level FlightAware (KSNC)
Fri 04:35:37 PM 40.3791 -73.7916 37° Northeast 432 497 37,100 81 Climbing FlightAware (KPHL)
Fri 04:36:10 PM 40.4267 -73.7449 37° Northeast 431 496 37,100  Level FlightAware (KPHL)
Fri 04:36:46 PM 40.4891 -73.6834 37° Northeast 427 491 37,100 -80 Level FlightAware (KSNC)
Fri 04:37:25 PM 40.5499 -73.6235 37° Northeast 423 487 37,000 -86 Descending FlightAware (KPHL)
Fri 04:37:56 PM 40.5970 -73.5769 37° Northeast 422 486 37,000  Level FlightAware (KSNC)
Fri 04:38:34 PM 40.6541 -73.5204 37° Northeast 423 487 37,000  Level FlightAware (KSNC)
Fri 04:39:06 PM 40.7080 -73.4663 38° Northeast 426 490 37,000  Level FlightAware (KSNC)
Fri 04:39:38 PM 40.7546 -73.4177 39° Northeast 427 491 37,000  Level FlightAware (KSNC)
Fri 04:40:08 PM 40.8049 -73.3652 39° Northeast 428 493 37,000 98 Level FlightAware (KSNC)
Fri 04:40:39 PM 40.8505 -73.3176 38° Northeast 427 491 37,100 98 Climbing FlightAware (KSNC)
Fri 04:41:09 PM 40.8979 -73.2681 38° Northeast 427 491 37,100 -87 Level FlightAware (KSNC)
Fri 04:41:48 PM 40.9582 -73.2051 38° Northeast 426 490 37,000 -87 Descending FlightAware (KSNC)
Fri 04:42:18 PM 41.0060 -73.1551 39° Northeast 427 491 37,000  Level FlightAware (KSNC)
Fri 04:42:50 PM 41.0559 -73.1027 39° Northeast 427 491 37,000  Level FlightAware (KSNC)
Fri 04:43:21 PM 41.1027 -73.0535 38° Northeast 426 490 37,000  Level FlightAware (KSNC)
Fri 04:43:51 PM 41.1492 -73.0045 39° Northeast 426 490 37,000  Level FlightAware (KSNC)
Fri 04:44:30 PM 41.2102 -72.9401 39° Northeast 425 489 37,000  Level FlightAware (KSNC)
Fri 04:45:01 PM 41.2577 -72.8899 39° Northeast 425 489 37,000  Level FlightAware (KSNC)
Fri 04:45:39 PM 41.3163 -72.8277 39° Northeast 424 488 37,000  Level FlightAware (KSNC)
Fri 04:46:12 PM 41.3586 -72.7827 39° Northeast 423 487 37,000  Level FlightAware (KSNC)
Fri 04:46:49 PM 41.4225 -72.7147 39° Northeast 422 486 37,000  Level FlightAware (KSNC)
Fri 04:47:21 PM 41.4706 -72.6633 39° Northeast 416 479 37,000  Level FlightAware (KWWD)
Fri 04:47:29 PM 41.4832 -72.6499 40° Northeast 417 480 37,000  Level FlightAware (KWWD)
Fri 04:48:04 PM 41.5363 -72.5932 39° Northeast 424 488 37,000  Level FlightAware (KSNC)
Fri 04:48:23 PM 41.5667 -72.5607 39° Northeast 425 489 37,000  Level FlightAware (KSNC)
Fri 04:48:34 PM 41.5804 -72.5460 40° Northeast 420 483 37,000  Level FlightAware (KWWD)
Fri 04:49:04 PM 41.6290 -72.4938 39° Northeast 426 490 37,000  Level FlightAware (KSNC)
Fri 04:49:35 PM 41.6767 -72.4425 39° Northeast 427 491 37,000  Level FlightAware (KSNC)
Fri 04:50:05 PM 41.7226 -72.3930 39° Northeast 428 493 37,000 85 Level FlightAware (KSNC)
Fri 04:50:46 PM 41.7861 -72.3243 39° Northeast 427 491 37,100 76 Climbing FlightAware (KSNC)
Fri 04:51:24 PM 41.8449 -72.2606 39° Northeast 425 489 37,100  Level FlightAware (KSNC)
Fri 04:51:32 PM 41.8573 -72.2471 40° Northeast 418 481 37,100 -154 Level FlightAware (KASH)
Fri 04:52:03 PM 41.9031 -72.1972 40° Northeast 417 480 37,000 -120 Descending FlightAware (KASH)
Fri 04:52:22 PM 41.9332 -72.1646 40° Northeast 417 480 37,000  Level FlightAware (KASH)
Fri 04:52:59 PM 41.9882 -72.1046 40° Northeast 415 478 37,000  Level FlightAware (KASH)
Fri 04:53:29 PM 42.0341 -72.0544 40° Northeast 416 479 37,000  Level FlightAware (KASH)
Fri 04:53:59 PM 42.0790 -72.0053 39° Northeast 421 484 37,000  Level FlightAware (KASH)
Fri 04:54:29 PM 42.1252 -71.9548 39° Northeast 420 483 37,000 92 Level FlightAware (KASH)
Fri 04:55:04 PM 42.1774 -71.8974 39° Northeast 419 482 37,100  Climbing FlightAware (KSNC)
Fri 04:55:44 PM 42.2374 -71.8313 39° Northeast 416 479 37,000 -85 Descending FlightAware (KASH)
Fri 04:56:15 PM 42.2829 -71.7809 39° Northeast 415 478 37,000  Level FlightAware (KASH)
Fri 04:56:45 PM 42.3279 -71.7313 39° Northeast 416 479 37,000  Level FlightAware (KASH)
Fri 04:57:15 PM 42.3733 -71.6811 40° Northeast 418 481 37,000  Level FlightAware (KASH)
Fri 04:57:45 PM 42.4173 -71.6322 40° Northeast 419 482 37,000 98 Level FlightAware (KASH)
Fri 04:58:16 PM 42.4631 -71.5810 40° Northeast 419 482 37,100 82 Climbing FlightAware (KASH)
Fri 04:58:58 PM 42.5251 -71.5117 40° Northeast 418 481 37,100  Level FlightAware (EPKK / KRK)
Fri 04:59:29 PM 42.5722 -71.4591 40° Northeast 417 480 37,100 -85 Level FlightAware (EPKK / KRK)
Fri 05:00:09 PM 42.6317 -71.3928 40° Northeast 416 479 37,000 -85 Descending FlightAware (EPKK / KRK)
Fri 05:00:40 PM 42.6774 -71.3416 40° Northeast 416 479 37,000  Level FlightAware (EPKK / KRK)
Fri 05:01:11 PM 42.7241 -71.2888 40° Northeast 415 478 37,000  Level FlightAware (KASH)
Fri 05:01:41 PM 42.7680 -71.2392 40° Northeast 416 479 37,000  Level FlightAware (EPKK / KRK)
Fri 05:02:11 PM 42.8123 -71.1891 40° Northeast 416 479 37,000 98 Level FlightAware (EPKK / KRK)
Fri 05:02:42 PM 42.8568 -71.1388 40° Northeast 415 478 37,100 98 Climbing FlightAware (EPKK / KRK)
Fri 05:03:12 PM 42.9020 -71.0875 40° Northeast 415 478 37,100 -97 Level FlightAware (EPKK / KRK)
Fri 05:03:44 PM 42.9499 -71.0331 41° Northeast 409 471 37,000 -92 Descending FlightAware (KASH)
Fri 05:04:17 PM 42.9978 -70.9786 40° Northeast 415 478 37,000  Level FlightAware (EPKK / KRK)
Fri 05:04:47 PM 43.0436 -70.9263 40° Northeast 415 478 37,000  Level FlightAware (EPKK / KRK)
Fri 05:04:56 PM 43.0567 -70.9115 41° Northeast 409 471 37,000 -698 Level FlightAware (KASH)
Fri 05:05:30 PM 43.1056 -70.8551 41° Northeast 403 464 36,500 -917 Descending FlightAware (KASH)
Fri 05:06:08 PM 43.1586 -70.7940 40° Northeast 405 466 35,900 -971 Descending FlightAware (EPKK / KRK)
Fri 05:06:38 PM 43.2025 -70.7438 40° Northeast 406 467 35,400 -941 Descending FlightAware (EPKK / KRK)
Fri 05:06:59 PM 43.2346 -70.7073 41° Northeast 402 463 35,100 -931 Descending FlightAware (KASH)
Fri 05:07:36 PM 43.2878 -70.6460 41° Northeast 401 461 34,500 -882 Descending FlightAware (KASH)
Fri 05:08:07 PM 43.3077 -70.6230 40° Northeast 409 471 34,100 -462 Descending FlightAware (EPKK / KRK)
Fri 05:08:41 PM 43.3803 -70.5392 40° Northeast 415 478 34,000 -87 Descending FlightAware (EPKK / KRK)
Fri 05:09:16 PM 43.4328 -70.4781 41° Northeast 407 468 34,000  Level FlightAware (KASH)
Fri 05:09:48 PM 43.4801 -70.4231 41° Northeast 410 472 34,000 -508 Level FlightAware (EPKK / KRK)
Fri 05:10:15 PM 43.5203 -70.3763 41° Northeast 409 471 33,500 -1,684 Descending FlightAware (KASH)
Fri 05:10:45 PM 43.5628 -70.3265 41° Northeast 406 467 32,400 -2,400 Descending FlightAware (KASH)
Fri 05:11:20 PM 43.6090 -70.2723 40° Northeast 399 459 30,900 -2,636 Descending FlightAware (EPKK / KRK)
Fri 05:11:51 PM 43.6564 -70.2171 40° Northeast 397 457 29,500 -2,700 Descending FlightAware (EPKK / KRK)
Fri 05:12:00 PM 43.6691 -70.2023 40° Northeast 397 457 29,100 -2,571 Descending FlightAware (EPKK / KRK)
Fri 05:12:47 PM 43.7339 -70.1261 41° Northeast 385 443 27,100 -2,370 Descending FlightAware (KASH)
Fri 05:13:21 PM 43.7799 -70.0715 41° Northeast 382 440 25,900 -2,189 Descending FlightAware (EPKK / KRK)
Fri 05:14:01 PM 43.8341 -70.0074 41° Northeast 368 423 24,400 -2,143 Descending FlightAware (KASH)
Fri 05:14:45 PM 43.8909 -69.9401 41° Northeast 363 418 22,900 -2,022 Descending FlightAware (KASH)
Fri 05:15:30 PM 43.9490 -69.8711 41° Northeast 365 420 21,400 -2,080 Descending FlightAware (KASH)
Fri 05:16:00 PM 43.9872 -69.8258 41° Northeast 364 419 20,300 -1,865 Descending FlightAware (KASH)
Fri 05:16:44 PM 44.0350 -69.7692 41° Northeast 367 422 19,100 -1,626 Descending Boston Center
Fri 05:22:20 PM 44.4179 -69.2700 53° Northeast 282 325 10,000 -1,611 Descending FlightAware (KBGR)
Fri 05:22:49 PM 44.4400 -69.2296 53° Northeast 280 322 9,300 -1,333 Descending FlightAware (KBGR)
Fri 05:23:05 PM 44.4465 -69.2176 53° Northeast 276 318 9,000 -1,263 Descending FlightAware (KBGR)
Fri 05:23:27 PM 44.4696 -69.1748 53° Northeast 272 313 8,500 -1,520 Descending FlightAware (KBGR)
Fri 05:24:20 PM 44.5089 -69.1021 53° Northeast 266 306 7,100 -1,446 Descending FlightAware (KBGR)
Fri 05:24:50 PM 44.5193 -69.0829 53° Northeast 263 303 6,500 -1,377 Descending FlightAware (KBGR)
Fri 05:25:21 PM 44.5508 -69.0244 53° Northeast 263 303 5,700 -1,524 Descending FlightAware (KBGR)
Fri 05:25:53 PM 44.5777 -68.9748 53° Northeast 261 300 4,900 -1,263 Descending FlightAware (KBGR)
Fri 05:26:18 PM 44.5990 -68.9454 42° Northeast 253 291 4,500 -1,000 Descending FlightAware (KBGR)
Fri 05:26:41 PM 44.6155 -68.9248 42° Northeast 253 291 4,100 -1,067 Descending FlightAware (YSBK / BWU)
Fri 05:27:03 PM 44.6184 -68.9212 42° Northeast 244 281 3,700 -1,024 Descending FlightAware (KBGR)
Fri 05:27:22 PM 44.6501 -68.8825 38° Northeast 234 269 3,400 -1,317 Descending FlightAware (YSBK / BWU)
Fri 05:27:44 PM 44.6716 -68.8588 38° Northeast 234 269 2,800 -1,500 Descending FlightAware (YSBK / BWU)
Fri 05:28:02 PM 44.6884 -68.8404 38° Northeast 222 255 2,400 -615 Descending FlightAware (YSBK / BWU)
Fri 05:28:23 PM 44.7047 -68.8219 42° Northeast 208 239 2,400 -701 Level FlightAware (YSBK / BWU)
Fri 05:29:19 PM 44.7409 -68.7762 36° Northeast 175 201 1,500 -923 Descending FlightAware (YSBK / BWU)
Fri 05:29:28 PM 44.7470 -68.7715 27° Northeast 159 183 1,400 -750 Descending FlightAware (YSBK / BWU)
Fri 05:29:51 PM 44.7614 -68.7697 351° North 129 148 1,100 -727 Descending FlightAware (YSBK / BWU)
Fri 05:30:01 PM 44.7646 -68.7713 332° Northwest 127 146 1,000 -429 Descending FlightAware (YSBK / BWU)
Fri 05:30:19 PM 44.7674 -68.7732 318° Northwest 131 151 900 -585 Descending FlightAware (YSBK / BWU)
Fri 05:30:42 PM 44.7833 -68.7931 313° West 139 160 600 -818 Descending FlightAware (YSBK / BWU)
Fri 05:31:03 PM 44.7927 -68.8068 314° West 137 158 300 -857 Descending FlightAware (YSBK / BWU)

Login

Don't have an account? Register now (free) for customized features, flight alerts, and more!